sensor_id;sensor_type;location;lat;lon;timestamp;P1;durP1;ratioP1;P2;durP2;ratioP2
71814;SDS011;59659;41.520;23.794;2023-03-26T00:00:23;6.35;;;3.22;;
71814;SDS011;59659;41.520;23.794;2023-03-26T00:01:34;7.13;;;3.35;;
71814;SDS011;59659;41.520;23.794;2023-03-26T00:02:48;6.88;;;3.88;;
71814;SDS011;59659;41.520;23.794;2023-03-26T00:04:00;7.50;;;3.47;;
71814;SDS011;59659;41.520;23.794;2023-03-26T00:05:11;6.93;;;4.32;;
71814;SDS011;59659;41.520;23.794;2023-03-26T00:06:28;8.60;;;3.80;;
71814;SDS011;59659;41.520;23.794;2023-03-26T00:07:40;8.65;;;4.15;;
71814;SDS011;59659;41.520;23.794;2023-03-26T00:08:52;8.77;;;4.25;;
71814;SDS011;59659;41.520;23.794;2023-03-26T00:10:04;7.07;;;4.05;;
71814;SDS011;59659;41.520;23.794;2023-03-26T00:11:17;8.68;;;4.30;;
71814;SDS011;59659;41.520;23.794;2023-03-26T00:12:29;9.85;;;4.35;;
71814;SDS011;59659;41.520;23.794;2023-03-26T00:13:41;8.07;;;4.63;;
71814;SDS011;59659;41.520;23.794;2023-03-26T00:14:54;8.45;;;3.83;;
71814;SDS011;59659;41.520;23.794;2023-03-26T00:16:06;7.72;;;3.80;;
71814;SDS011;59659;41.520;23.794;2023-03-26T00:17:17;7.57;;;3.65;;
71814;SDS011;59659;41.520;23.794;2023-03-26T00:18:29;7.25;;;4.07;;
71814;SDS011;59659;41.520;23.794;2023-03-26T00:19:41;8.27;;;4.35;;
71814;SDS011;59659;41.520;23.794;2023-03-26T00:20:53;8.85;;;4.25;;
71814;SDS011;59659;41.520;23.794;2023-03-26T00:22:04;8.82;;;5.07;;
71814;SDS011;59659;41.520;23.794;2023-03-26T00:23:16;7.25;;;4.50;;
71814;SDS011;59659;41.520;23.794;2023-03-26T00:24:27;6.93;;;4.30;;
71814;SDS011;59659;41.520;23.794;2023-03-26T00:25:40;12.27;;;4.57;;
71814;SDS011;59659;41.520;23.794;2023-03-26T00:26:53;8.63;;;4.43;;
71814;SDS011;59659;41.520;23.794;2023-03-26T00:28:05;7.80;;;4.90;;
71814;SDS011;59659;41.520;23.794;2023-03-26T00:29:17;6.53;;;4.15;;
71814;SDS011;59659;41.520;23.794;2023-03-26T00:30:29;6.88;;;3.83;;
71814;SDS011;59659;41.520;23.794;2023-03-26T00:31:41;8.25;;;3.53;;
71814;SDS011;59659;41.520;23.794;2023-03-26T00:32:56;13.65;;;4.25;;
71814;SDS011;59659;41.520;23.794;2023-03-26T00:34:08;6.38;;;3.70;;
71814;SDS011;59659;41.520;23.794;2023-03-26T00:35:20;7.75;;;4.03;;
71814;SDS011;59659;41.520;23.794;2023-03-26T00:36:32;6.85;;;3.80;;
71814;SDS011;59659;41.520;23.794;2023-03-26T00:37:46;10.07;;;4.35;;
71814;SDS011;59659;41.520;23.794;2023-03-26T00:38:58;19.13;;;6.40;;
71814;SDS011;59659;41.520;23.794;2023-03-26T00:40:09;25.83;;;9.18;;
71814;SDS011;59659;41.520;23.794;2023-03-26T00:41:22;23.63;;;8.10;;
71814;SDS011;59659;41.520;23.794;2023-03-26T00:42:36;13.23;;;5.53;;
71814;SDS011;59659;41.520;23.794;2023-03-26T00:43:49;16.98;;;6.70;;
71814;SDS011;59659;41.520;23.794;2023-03-26T00:45:02;20.95;;;7.68;;
71814;SDS011;59659;41.520;23.794;2023-03-26T00:46:13;20.00;;;7.68;;
71814;SDS011;59659;41.520;23.794;2023-03-26T00:47:25;11.88;;;6.05;;
71814;SDS011;59659;41.520;23.794;2023-03-26T00:48:37;13.27;;;5.68;;
71814;SDS011;59659;41.520;23.794;2023-03-26T00:49:52;12.15;;;5.55;;
71814;SDS011;59659;41.520;23.794;2023-03-26T00:51:04;6.93;;;3.47;;
71814;SDS011;59659;41.520;23.794;2023-03-26T00:52:16;7.95;;;3.60;;
71814;SDS011;59659;41.520;23.794;2023-03-26T00:53:31;8.73;;;4.15;;
71814;SDS011;59659;41.520;23.794;2023-03-26T00:54:44;8.70;;;4.03;;
71814;SDS011;59659;41.520;23.794;2023-03-26T00:55:56;6.82;;;4.00;;
71814;SDS011;59659;41.520;23.794;2023-03-26T00:57:10;9.73;;;4.40;;
71814;SDS011;59659;41.520;23.794;2023-03-26T00:58:32;8.35;;;3.72;;
71814;SDS011;59659;41.520;23.794;2023-03-26T00:59:44;6.88;;;4.15;;
71814;SDS011;59659;41.520;23.794;2023-03-26T01:00:56;5.45;;;2.95;;
71814;SDS011;59659;41.520;23.794;2023-03-26T01:02:12;5.40;;;3.75;;
71814;SDS011;59659;41.520;23.794;2023-03-26T01:03:28;7.53;;;3.80;;
71814;SDS011;59659;41.520;23.794;2023-03-26T01:04:44;5.53;;;3.78;;
71814;SDS011;59659;41.520;23.794;2023-03-26T01:05:57;7.80;;;3.95;;
71814;SDS011;59659;41.520;23.794;2023-03-26T01:07:16;9.55;;;3.55;;
71814;SDS011;59659;41.520;23.794;2023-03-26T01:08:53;6.25;;;4.15;;
71814;SDS011;59659;41.520;23.794;2023-03-26T01:10:04;9.55;;;4.75;;
71814;SDS011;59659;41.520;23.794;2023-03-26T01:11:18;5.22;;;3.63;;
71814;SDS011;59659;41.520;23.794;2023-03-26T01:12:31;3.78;;;2.85;;
71814;SDS011;59659;41.520;23.794;2023-03-26T01:13:46;5.75;;;3.45;;
71814;SDS011;59659;41.520;23.794;2023-03-26T01:14:59;6.57;;;3.30;;
71814;SDS011;59659;41.520;23.794;2023-03-26T01:16:20;5.72;;;3.13;;
71814;SDS011;59659;41.520;23.794;2023-03-26T01:17:32;6.40;;;3.92;;
71814;SDS011;59659;41.520;23.794;2023-03-26T01:18:48;5.30;;;3.25;;
71814;SDS011;59659;41.520;23.794;2023-03-26T01:20:10;6.82;;;3.13;;
71814;SDS011;59659;41.520;23.794;2023-03-26T01:21:24;5.60;;;3.00;;
71814;SDS011;59659;41.520;23.794;2023-03-26T01:22:41;5.78;;;3.47;;
71814;SDS011;59659;41.520;23.794;2023-03-26T01:25:07;5.15;;;3.55;;
71814;SDS011;59659;41.520;23.794;2023-03-26T01:27:34;5.28;;;3.05;;
71814;SDS011;59659;41.520;23.794;2023-03-26T01:28:50;6.35;;;3.38;;
71814;SDS011;59659;41.520;23.794;2023-03-26T01:32:01;6.70;;;3.50;;
71814;SDS011;59659;41.520;23.794;2023-03-26T01:34:19;10.05;;;4.68;;
71814;SDS011;59659;41.520;23.794;2023-03-26T01:36:56;7.53;;;3.28;;
71814;SDS011;59659;41.520;23.794;2023-03-26T01:38:27;6.18;;;3.25;;
71814;SDS011;59659;41.520;23.794;2023-03-26T01:39:50;9.13;;;3.03;;
71814;SDS011;59659;41.520;23.794;2023-03-26T01:42:17;9.43;;;4.80;;
71814;SDS011;59659;41.520;23.794;2023-03-26T01:43:38;8.27;;;4.07;;
71814;SDS011;59659;41.520;23.794;2023-03-26T01:44:57;11.38;;;4.88;;
71814;SDS011;59659;41.520;23.794;2023-03-26T01:46:10;10.23;;;5.22;;
71814;SDS011;59659;41.520;23.794;2023-03-26T01:47:22;9.65;;;4.43;;
71814;SDS011;59659;41.520;23.794;2023-03-26T01:48:34;8.98;;;3.90;;
71814;SDS011;59659;41.520;23.794;2023-03-26T01:49:47;6.50;;;4.40;;
71814;SDS011;59659;41.520;23.794;2023-03-26T01:50:58;10.57;;;4.60;;
71814;SDS011;59659;41.520;23.794;2023-03-26T01:52:11;8.32;;;3.55;;
71814;SDS011;59659;41.520;23.794;2023-03-26T01:53:24;8.48;;;3.50;;
71814;SDS011;59659;41.520;23.794;2023-03-26T01:54:36;6.22;;;3.25;;
71814;SDS011;59659;41.520;23.794;2023-03-26T02:03:00;6.65;;;3.65;;
71814;SDS011;59659;41.520;23.794;2023-03-26T02:05:40;5.80;;;3.40;;
71814;SDS011;59659;41.520;23.794;2023-03-26T02:09:23;8.45;;;4.68;;
71814;SDS011;59659;41.520;23.794;2023-03-26T02:10:39;9.68;;;3.80;;
71814;SDS011;59659;41.520;23.794;2023-03-26T02:11:51;7.50;;;3.60;;
71814;SDS011;59659;41.520;23.794;2023-03-26T02:13:04;8.85;;;4.15;;
71814;SDS011;59659;41.520;23.794;2023-03-26T02:14:16;8.98;;;4.75;;
71814;SDS011;59659;41.520;23.794;2023-03-26T02:15:28;13.70;;;4.97;;
71814;SDS011;59659;41.520;23.794;2023-03-26T02:16:39;8.75;;;4.47;;
71814;SDS011;59659;41.520;23.794;2023-03-26T02:17:51;8.73;;;4.63;;
71814;SDS011;59659;41.520;23.794;2023-03-26T02:19:03;9.55;;;4.65;;
71814;SDS011;59659;41.520;23.794;2023-03-26T02:20:15;9.70;;;4.93;;
71814;SDS011;59659;41.520;23.794;2023-03-26T02:21:29;10.50;;;6.18;;
71814;SDS011;59659;41.520;23.794;2023-03-26T02:22:44;6.20;;;3.80;;
71814;SDS011;59659;41.520;23.794;2023-03-26T02:23:57;9.00;;;4.80;;
71814;SDS011;59659;41.520;23.794;2023-03-26T02:25:15;11.05;;;4.75;;
71814;SDS011;59659;41.520;23.794;2023-03-26T02:26:27;4.47;;;3.30;;
71814;SDS011;59659;41.520;23.794;2023-03-26T02:27:39;7.88;;;4.20;;
71814;SDS011;59659;41.520;23.794;2023-03-26T02:28:51;6.85;;;4.30;;
71814;SDS011;59659;41.520;23.794;2023-03-26T02:30:03;8.57;;;3.33;;
71814;SDS011;59659;41.520;23.794;2023-03-26T02:31:15;8.63;;;3.60;;
71814;SDS011;59659;41.520;23.794;2023-03-26T02:32:29;6.40;;;3.75;;
71814;SDS011;59659;41.520;23.794;2023-03-26T02:33:41;7.20;;;3.75;;
71814;SDS011;59659;41.520;23.794;2023-03-26T02:34:54;10.05;;;4.78;;
71814;SDS011;59659;41.520;23.794;2023-03-26T02:36:06;7.05;;;3.97;;
71814;SDS011;59659;41.520;23.794;2023-03-26T02:37:18;6.00;;;4.13;;
71814;SDS011;59659;41.520;23.794;2023-03-26T02:38:30;8.25;;;4.70;;
71814;SDS011;59659;41.520;23.794;2023-03-26T02:39:45;10.68;;;4.22;;
71814;SDS011;59659;41.520;23.794;2023-03-26T02:40:57;11.80;;;5.07;;
71814;SDS011;59659;41.520;23.794;2023-03-26T02:42:08;12.18;;;4.22;;
71814;SDS011;59659;41.520;23.794;2023-03-26T02:43:20;7.85;;;4.78;;
71814;SDS011;59659;41.520;23.794;2023-03-26T02:44:31;8.43;;;4.55;;
71814;SDS011;59659;41.520;23.794;2023-03-26T02:45:43;7.70;;;3.67;;
71814;SDS011;59659;41.520;23.794;2023-03-26T02:46:54;7.25;;;4.13;;
71814;SDS011;59659;41.520;23.794;2023-03-26T02:48:06;7.55;;;3.72;;
71814;SDS011;59659;41.520;23.794;2023-03-26T02:49:18;6.47;;;3.88;;
71814;SDS011;59659;41.520;23.794;2023-03-26T02:50:29;5.55;;;3.33;;
71814;SDS011;59659;41.520;23.794;2023-03-26T02:51:42;7.30;;;3.60;;
71814;SDS011;59659;41.520;23.794;2023-03-26T02:52:54;5.78;;;3.28;;
71814;SDS011;59659;41.520;23.794;2023-03-26T02:54:06;7.40;;;3.42;;
71814;SDS011;59659;41.520;23.794;2023-03-26T02:55:17;7.03;;;4.60;;
71814;SDS011;59659;41.520;23.794;2023-03-26T02:56:29;7.10;;;4.13;;
71814;SDS011;59659;41.520;23.794;2023-03-26T02:57:40;10.38;;;4.43;;
71814;SDS011;59659;41.520;23.794;2023-03-26T02:58:52;9.27;;;4.25;;
71814;SDS011;59659;41.520;23.794;2023-03-26T03:00:03;8.35;;;4.63;;
71814;SDS011;59659;41.520;23.794;2023-03-26T03:01:24;8.23;;;4.35;;
71814;SDS011;59659;41.520;23.794;2023-03-26T03:02:36;5.15;;;3.60;;
71814;SDS011;59659;41.520;23.794;2023-03-26T03:03:50;6.22;;;3.50;;
71814;SDS011;59659;41.520;23.794;2023-03-26T03:05:02;5.97;;;3.78;;
71814;SDS011;59659;41.520;23.794;2023-03-26T03:06:16;12.18;;;4.45;;
71814;SDS011;59659;41.520;23.794;2023-03-26T03:07:29;11.10;;;4.57;;
71814;SDS011;59659;41.520;23.794;2023-03-26T03:08:40;12.35;;;4.60;;
71814;SDS011;59659;41.520;23.794;2023-03-26T03:09:52;10.35;;;4.97;;
71814;SDS011;59659;41.520;23.794;2023-03-26T03:11:10;8.95;;;5.13;;
71814;SDS011;59659;41.520;23.794;2023-03-26T03:12:22;12.50;;;5.47;;
71814;SDS011;59659;41.520;23.794;2023-03-26T03:13:33;11.35;;;5.68;;
71814;SDS011;59659;41.520;23.794;2023-03-26T03:14:45;9.80;;;4.95;;
71814;SDS011;59659;41.520;23.794;2023-03-26T03:15:56;9.73;;;5.63;;
71814;SDS011;59659;41.520;23.794;2023-03-26T03:17:08;10.38;;;4.80;;
71814;SDS011;59659;41.520;23.794;2023-03-26T03:18:19;9.70;;;4.63;;
71814;SDS011;59659;41.520;23.794;2023-03-26T03:19:30;10.35;;;4.80;;
71814;SDS011;59659;41.520;23.794;2023-03-26T03:20:42;10.75;;;4.30;;
71814;SDS011;59659;41.520;23.794;2023-03-26T03:21:54;7.90;;;4.65;;
71814;SDS011;59659;41.520;23.794;2023-03-26T03:23:06;20.73;;;5.05;;
71814;SDS011;59659;41.520;23.794;2023-03-26T03:24:17;10.40;;;4.10;;
71814;SDS011;59659;41.520;23.794;2023-03-26T03:25:29;8.38;;;4.15;;
71814;SDS011;59659;41.520;23.794;2023-03-26T03:26:40;14.73;;;4.57;;
71814;SDS011;59659;41.520;23.794;2023-03-26T03:27:52;8.70;;;4.10;;
71814;SDS011;59659;41.520;23.794;2023-03-26T03:29:04;9.90;;;4.80;;
71814;SDS011;59659;41.520;23.794;2023-03-26T03:30:15;8.30;;;4.57;;
71814;SDS011;59659;41.520;23.794;2023-03-26T03:31:27;4.82;;;3.20;;
71814;SDS011;59659;41.520;23.794;2023-03-26T03:32:38;9.90;;;4.25;;
71814;SDS011;59659;41.520;23.794;2023-03-26T03:33:50;5.25;;;3.50;;
71814;SDS011;59659;41.520;23.794;2023-03-26T03:35:02;7.90;;;4.45;;
71814;SDS011;59659;41.520;23.794;2023-03-26T03:36:14;9.77;;;5.43;;
71814;SDS011;59659;41.520;23.794;2023-03-26T03:37:31;14.05;;;6.65;;
71814;SDS011;59659;41.520;23.794;2023-03-26T03:38:43;19.05;;;8.00;;
71814;SDS011;59659;41.520;23.794;2023-03-26T03:39:55;14.85;;;7.75;;
71814;SDS011;59659;41.520;23.794;2023-03-26T03:41:07;11.80;;;6.15;;
71814;SDS011;59659;41.520;23.794;2023-03-26T03:42:18;10.73;;;5.05;;
71814;SDS011;59659;41.520;23.794;2023-03-26T03:43:30;8.77;;;5.15;;
71814;SDS011;59659;41.520;23.794;2023-03-26T03:44:43;9.73;;;5.05;;
71814;SDS011;59659;41.520;23.794;2023-03-26T03:45:54;8.27;;;4.88;;
71814;SDS011;59659;41.520;23.794;2023-03-26T03:47:06;10.30;;;5.55;;
71814;SDS011;59659;41.520;23.794;2023-03-26T03:48:20;10.27;;;4.93;;
71814;SDS011;59659;41.520;23.794;2023-03-26T03:49:32;6.55;;;3.97;;
71814;SDS011;59659;41.520;23.794;2023-03-26T03:50:43;8.70;;;4.72;;
71814;SDS011;59659;41.520;23.794;2023-03-26T03:51:55;15.40;;;4.32;;
71814;SDS011;59659;41.520;23.794;2023-03-26T03:53:07;11.63;;;4.68;;
71814;SDS011;59659;41.520;23.794;2023-03-26T03:54:18;8.88;;;3.83;;
71814;SDS011;59659;41.520;23.794;2023-03-26T03:55:30;7.93;;;4.05;;
71814;SDS011;59659;41.520;23.794;2023-03-26T03:56:41;6.88;;;3.47;;
71814;SDS011;59659;41.520;23.794;2023-03-26T03:57:55;12.23;;;6.10;;
71814;SDS011;59659;41.520;23.794;2023-03-26T03:59:08;11.57;;;6.00;;
71814;SDS011;59659;41.520;23.794;2023-03-26T04:00:20;11.25;;;5.72;;
71814;SDS011;59659;41.520;23.794;2023-03-26T04:01:33;14.85;;;5.57;;
71814;SDS011;59659;41.520;23.794;2023-03-26T04:02:44;8.05;;;4.38;;
71814;SDS011;59659;41.520;23.794;2023-03-26T04:03:57;10.25;;;4.90;;
71814;SDS011;59659;41.520;23.794;2023-03-26T04:05:08;9.25;;;5.05;;
71814;SDS011;59659;41.520;23.794;2023-03-26T04:06:21;12.48;;;4.97;;
71814;SDS011;59659;41.520;23.794;2023-03-26T04:07:35;8.90;;;5.20;;
71814;SDS011;59659;41.520;23.794;2023-03-26T04:08:46;7.85;;;4.60;;
71814;SDS011;59659;41.520;23.794;2023-03-26T04:09:58;7.28;;;4.45;;
71814;SDS011;59659;41.520;23.794;2023-03-26T04:11:11;7.13;;;4.00;;
71814;SDS011;59659;41.520;23.794;2023-03-26T04:12:22;6.20;;;3.58;;
71814;SDS011;59659;41.520;23.794;2023-03-26T04:13:34;8.07;;;3.38;;
71814;SDS011;59659;41.520;23.794;2023-03-26T04:14:45;8.90;;;4.78;;
71814;SDS011;59659;41.520;23.794;2023-03-26T04:15:57;4.60;;;3.20;;
71814;SDS011;59659;41.520;23.794;2023-03-26T04:17:09;9.50;;;3.70;;
71814;SDS011;59659;41.520;23.794;2023-03-26T04:18:20;8.98;;;3.85;;
71814;SDS011;59659;41.520;23.794;2023-03-26T04:19:32;7.45;;;4.13;;
71814;SDS011;59659;41.520;23.794;2023-03-26T04:20:44;6.13;;;3.33;;
71814;SDS011;59659;41.520;23.794;2023-03-26T04:21:59;7.25;;;3.63;;
71814;SDS011;59659;41.520;23.794;2023-03-26T04:23:13;5.18;;;3.13;;
71814;SDS011;59659;41.520;23.794;2023-03-26T04:24:25;7.82;;;3.30;;
71814;SDS011;59659;41.520;23.794;2023-03-26T04:25:36;6.22;;;3.40;;
71814;SDS011;59659;41.520;23.794;2023-03-26T04:26:49;6.50;;;3.33;;
71814;SDS011;59659;41.520;23.794;2023-03-26T04:28:02;5.80;;;3.55;;
71814;SDS011;59659;41.520;23.794;2023-03-26T04:29:16;7.00;;;3.47;;
71814;SDS011;59659;41.520;23.794;2023-03-26T04:30:32;6.13;;;3.33;;
71814;SDS011;59659;41.520;23.794;2023-03-26T04:31:44;8.38;;;3.42;;
71814;SDS011;59659;41.520;23.794;2023-03-26T04:32:57;5.00;;;2.80;;
71814;SDS011;59659;41.520;23.794;2023-03-26T04:34:20;5.75;;;3.75;;
71814;SDS011;59659;41.520;23.794;2023-03-26T04:35:34;6.68;;;3.50;;
71814;SDS011;59659;41.520;23.794;2023-03-26T04:36:46;6.20;;;3.70;;
71814;SDS011;59659;41.520;23.794;2023-03-26T04:37:57;6.60;;;3.35;;
71814;SDS011;59659;41.520;23.794;2023-03-26T04:39:09;6.30;;;3.40;;
71814;SDS011;59659;41.520;23.794;2023-03-26T04:40:21;4.15;;;2.65;;
71814;SDS011;59659;41.520;23.794;2023-03-26T04:41:33;6.00;;;3.35;;
71814;SDS011;59659;41.520;23.794;2023-03-26T04:42:44;4.95;;;2.70;;
71814;SDS011;59659;41.520;23.794;2023-03-26T04:43:56;4.43;;;2.83;;
71814;SDS011;59659;41.520;23.794;2023-03-26T04:45:16;6.22;;;3.47;;
71814;SDS011;59659;41.520;23.794;2023-03-26T04:46:28;12.18;;;6.30;;
71814;SDS011;59659;41.520;23.794;2023-03-26T04:47:43;12.68;;;5.15;;
71814;SDS011;59659;41.520;23.794;2023-03-26T04:48:56;18.52;;;8.68;;
71814;SDS011;59659;41.520;23.794;2023-03-26T04:50:08;11.25;;;7.63;;
71814;SDS011;59659;41.520;23.794;2023-03-26T04:51:23;9.65;;;5.70;;
71814;SDS011;59659;41.520;23.794;2023-03-26T04:52:35;7.80;;;5.45;;
71814;SDS011;59659;41.520;23.794;2023-03-26T04:53:51;13.20;;;6.93;;
71814;SDS011;59659;41.520;23.794;2023-03-26T04:55:04;11.77;;;6.18;;
71814;SDS011;59659;41.520;23.794;2023-03-26T04:57:36;12.25;;;5.25;;
71814;SDS011;59659;41.520;23.794;2023-03-26T04:58:49;12.90;;;6.95;;
71814;SDS011;59659;41.520;23.794;2023-03-26T05:00:02;8.68;;;5.55;;
71814;SDS011;59659;41.520;23.794;2023-03-26T05:01:25;15.55;;;6.50;;
71814;SDS011;59659;41.520;23.794;2023-03-26T05:02:41;12.77;;;6.97;;
71814;SDS011;59659;41.520;23.794;2023-03-26T05:03:53;13.82;;;6.57;;
71814;SDS011;59659;41.520;23.794;2023-03-26T05:05:04;12.95;;;6.80;;
71814;SDS011;59659;41.520;23.794;2023-03-26T05:06:16;19.42;;;7.95;;
71814;SDS011;59659;41.520;23.794;2023-03-26T05:07:28;13.25;;;6.20;;
71814;SDS011;59659;41.520;23.794;2023-03-26T05:08:39;12.68;;;6.50;;
71814;SDS011;59659;41.520;23.794;2023-03-26T05:09:52;10.18;;;6.47;;
71814;SDS011;59659;41.520;23.794;2023-03-26T05:11:03;20.10;;;8.02;;
71814;SDS011;59659;41.520;23.794;2023-03-26T05:12:17;14.93;;;9.65;;
71814;SDS011;59659;41.520;23.794;2023-03-26T05:13:29;14.63;;;7.60;;
71814;SDS011;59659;41.520;23.794;2023-03-26T05:14:40;13.48;;;8.00;;
71814;SDS011;59659;41.520;23.794;2023-03-26T05:15:52;12.18;;;6.88;;
71814;SDS011;59659;41.520;23.794;2023-03-26T05:17:04;9.18;;;6.43;;
71814;SDS011;59659;41.520;23.794;2023-03-26T05:18:16;14.90;;;6.43;;
71814;SDS011;59659;41.520;23.794;2023-03-26T05:19:27;17.20;;;8.63;;
71814;SDS011;59659;41.520;23.794;2023-03-26T05:20:39;16.67;;;7.68;;
71814;SDS011;59659;41.520;23.794;2023-03-26T05:21:50;10.30;;;5.38;;
71814;SDS011;59659;41.520;23.794;2023-03-26T05:23:02;8.30;;;4.90;;
71814;SDS011;59659;41.520;23.794;2023-03-26T05:24:13;9.15;;;5.50;;
71814;SDS011;59659;41.520;23.794;2023-03-26T05:25:25;11.20;;;6.75;;
71814;SDS011;59659;41.520;23.794;2023-03-26T05:26:36;8.57;;;5.50;;
71814;SDS011;59659;41.520;23.794;2023-03-26T05:27:48;10.27;;;6.35;;
71814;SDS011;59659;41.520;23.794;2023-03-26T05:28:59;8.70;;;5.25;;
71814;SDS011;59659;41.520;23.794;2023-03-26T05:30:14;13.50;;;7.57;;
71814;SDS011;59659;41.520;23.794;2023-03-26T05:31:26;11.13;;;5.88;;
71814;SDS011;59659;41.520;23.794;2023-03-26T05:32:38;12.50;;;6.18;;
71814;SDS011;59659;41.520;23.794;2023-03-26T05:33:49;12.20;;;6.10;;
71814;SDS011;59659;41.520;23.794;2023-03-26T05:35:02;13.13;;;6.55;;
71814;SDS011;59659;41.520;23.794;2023-03-26T05:36:14;16.92;;;9.15;;
71814;SDS011;59659;41.520;23.794;2023-03-26T05:37:29;19.23;;;9.55;;
71814;SDS011;59659;41.520;23.794;2023-03-26T05:38:42;14.65;;;6.68;;
71814;SDS011;59659;41.520;23.794;2023-03-26T05:39:58;15.05;;;8.30;;
71814;SDS011;59659;41.520;23.794;2023-03-26T05:41:10;15.05;;;7.35;;
71814;SDS011;59659;41.520;23.794;2023-03-26T05:42:21;14.05;;;7.22;;
71814;SDS011;59659;41.520;23.794;2023-03-26T05:43:33;13.93;;;6.95;;
71814;SDS011;59659;41.520;23.794;2023-03-26T05:44:45;17.48;;;6.43;;
71814;SDS011;59659;41.520;23.794;2023-03-26T05:45:57;11.27;;;6.25;;
71814;SDS011;59659;41.520;23.794;2023-03-26T05:47:08;12.35;;;5.90;;
71814;SDS011;59659;41.520;23.794;2023-03-26T05:48:20;12.15;;;6.47;;
71814;SDS011;59659;41.520;23.794;2023-03-26T05:49:31;14.80;;;9.60;;
71814;SDS011;59659;41.520;23.794;2023-03-26T05:50:43;11.73;;;6.78;;
71814;SDS011;59659;41.520;23.794;2023-03-26T05:51:54;11.60;;;7.60;;
71814;SDS011;59659;41.520;23.794;2023-03-26T05:53:06;13.25;;;7.13;;
71814;SDS011;59659;41.520;23.794;2023-03-26T05:54:17;15.45;;;6.35;;
71814;SDS011;59659;41.520;23.794;2023-03-26T05:55:29;14.80;;;6.95;;
71814;SDS011;59659;41.520;23.794;2023-03-26T05:56:43;14.25;;;6.53;;
71814;SDS011;59659;41.520;23.794;2023-03-26T05:57:55;16.98;;;7.10;;
71814;SDS011;59659;41.520;23.794;2023-03-26T05:59:07;10.70;;;5.82;;
71814;SDS011;59659;41.520;23.794;2023-03-26T06:00:19;13.50;;;7.57;;
71814;SDS011;59659;41.520;23.794;2023-03-26T06:01:30;12.77;;;7.38;;
71814;SDS011;59659;41.520;23.794;2023-03-26T06:02:42;13.90;;;8.32;;
71814;SDS011;59659;41.520;23.794;2023-03-26T06:03:53;15.95;;;7.40;;
71814;SDS011;59659;41.520;23.794;2023-03-26T06:05:05;11.50;;;7.18;;
71814;SDS011;59659;41.520;23.794;2023-03-26T06:06:18;15.20;;;6.78;;
71814;SDS011;59659;41.520;23.794;2023-03-26T06:07:30;14.20;;;8.18;;
71814;SDS011;59659;41.520;23.794;2023-03-26T06:08:44;10.35;;;6.38;;
71814;SDS011;59659;41.520;23.794;2023-03-26T06:10:13;15.25;;;7.88;;
71814;SDS011;59659;41.520;23.794;2023-03-26T06:11:29;14.00;;;7.40;;
71814;SDS011;59659;41.520;23.794;2023-03-26T06:12:42;18.38;;;7.72;;
71814;SDS011;59659;41.520;23.794;2023-03-26T06:13:53;18.08;;;7.57;;
71814;SDS011;59659;41.520;23.794;2023-03-26T06:15:05;13.18;;;7.13;;
71814;SDS011;59659;41.520;23.794;2023-03-26T06:16:17;12.55;;;6.18;;
71814;SDS011;59659;41.520;23.794;2023-03-26T06:17:38;10.93;;;6.18;;
71814;SDS011;59659;41.520;23.794;2023-03-26T06:18:49;11.20;;;6.15;;
71814;SDS011;59659;41.520;23.794;2023-03-26T06:20:08;9.75;;;5.68;;
71814;SDS011;59659;41.520;23.794;2023-03-26T06:21:19;10.48;;;5.75;;
71814;SDS011;59659;41.520;23.794;2023-03-26T06:22:31;12.30;;;5.80;;
71814;SDS011;59659;41.520;23.794;2023-03-26T06:23:42;8.60;;;5.28;;
71814;SDS011;59659;41.520;23.794;2023-03-26T06:24:54;8.82;;;5.47;;
71814;SDS011;59659;41.520;23.794;2023-03-26T06:26:06;11.80;;;5.63;;
71814;SDS011;59659;41.520;23.794;2023-03-26T06:27:17;11.30;;;6.32;;
71814;SDS011;59659;41.520;23.794;2023-03-26T06:28:29;8.88;;;5.20;;
71814;SDS011;59659;41.520;23.794;2023-03-26T06:29:40;10.02;;;5.40;;
71814;SDS011;59659;41.520;23.794;2023-03-26T06:30:52;8.38;;;5.28;;
71814;SDS011;59659;41.520;23.794;2023-03-26T06:32:04;12.07;;;5.97;;
71814;SDS011;59659;41.520;23.794;2023-03-26T06:33:29;9.70;;;5.18;;
71814;SDS011;59659;41.520;23.794;2023-03-26T06:34:41;9.20;;;5.35;;
71814;SDS011;59659;41.520;23.794;2023-03-26T06:35:53;10.38;;;5.45;;
71814;SDS011;59659;41.520;23.794;2023-03-26T06:37:04;11.15;;;5.60;;
71814;SDS011;59659;41.520;23.794;2023-03-26T06:38:16;9.43;;;6.03;;
71814;SDS011;59659;41.520;23.794;2023-03-26T06:39:27;8.38;;;5.88;;
71814;SDS011;59659;41.520;23.794;2023-03-26T06:40:39;12.25;;;6.35;;
71814;SDS011;59659;41.520;23.794;2023-03-26T06:41:50;12.00;;;5.40;;
71814;SDS011;59659;41.520;23.794;2023-03-26T06:43:02;7.93;;;4.80;;
71814;SDS011;59659;41.520;23.794;2023-03-26T06:44:20;6.95;;;4.30;;
71814;SDS011;59659;41.520;23.794;2023-03-26T06:45:32;7.90;;;4.38;;
71814;SDS011;59659;41.520;23.794;2023-03-26T06:46:43;10.63;;;4.95;;
71814;SDS011;59659;41.520;23.794;2023-03-26T06:47:55;9.65;;;5.68;;
71814;SDS011;59659;41.520;23.794;2023-03-26T06:49:06;9.82;;;5.60;;
71814;SDS011;59659;41.520;23.794;2023-03-26T06:50:18;10.55;;;5.60;;
71814;SDS011;59659;41.520;23.794;2023-03-26T06:51:30;9.80;;;5.55;;
71814;SDS011;59659;41.520;23.794;2023-03-26T06:52:41;8.82;;;5.93;;
71814;SDS011;59659;41.520;23.794;2023-03-26T06:53:53;11.73;;;5.25;;
71814;SDS011;59659;41.520;23.794;2023-03-26T06:55:04;9.90;;;4.90;;
71814;SDS011;59659;41.520;23.794;2023-03-26T06:56:18;8.45;;;4.93;;
71814;SDS011;59659;41.520;23.794;2023-03-26T06:57:30;10.23;;;5.18;;
71814;SDS011;59659;41.520;23.794;2023-03-26T06:58:41;9.40;;;5.72;;
71814;SDS011;59659;41.520;23.794;2023-03-26T06:59:53;10.57;;;6.10;;
71814;SDS011;59659;41.520;23.794;2023-03-26T07:01:04;8.75;;;5.38;;
71814;SDS011;59659;41.520;23.794;2023-03-26T07:02:18;10.82;;;5.78;;
71814;SDS011;59659;41.520;23.794;2023-03-26T07:03:30;12.65;;;6.00;;
71814;SDS011;59659;41.520;23.794;2023-03-26T07:04:41;8.88;;;4.97;;
71814;SDS011;59659;41.520;23.794;2023-03-26T07:05:53;8.63;;;4.75;;
71814;SDS011;59659;41.520;23.794;2023-03-26T07:07:04;12.73;;;5.87;;
71814;SDS011;59659;41.520;23.794;2023-03-26T07:08:16;11.15;;;5.88;;
71814;SDS011;59659;41.520;23.794;2023-03-26T07:09:27;8.67;;;4.83;;
71814;SDS011;59659;41.520;23.794;2023-03-26T07:10:42;11.97;;;5.93;;
71814;SDS011;59659;41.520;23.794;2023-03-26T07:11:54;10.10;;;5.87;;
71814;SDS011;59659;41.520;23.794;2023-03-26T07:13:05;13.37;;;6.57;;
71814;SDS011;59659;41.520;23.794;2023-03-26T07:14:17;12.10;;;6.60;;
71814;SDS011;59659;41.520;23.794;2023-03-26T07:15:28;10.90;;;5.73;;
71814;SDS011;59659;41.520;23.794;2023-03-26T07:16:40;4.50;;;2.70;;
71814;SDS011;59659;41.520;23.794;2023-03-26T07:17:52;2.77;;;1.87;;
71814;SDS011;59659;41.520;23.794;2023-03-26T07:19:03;4.27;;;2.07;;
71814;SDS011;59659;41.520;23.794;2023-03-26T07:20:15;5.40;;;2.13;;
71814;SDS011;59659;41.520;23.794;2023-03-26T07:21:26;2.93;;;1.87;;
71814;SDS011;59659;41.520;23.794;2023-03-26T07:22:38;4.10;;;2.17;;
71814;SDS011;59659;41.520;23.794;2023-03-26T07:23:49;3.07;;;1.77;;
71814;SDS011;59659;41.520;23.794;2023-03-26T07:25:02;3.93;;;2.73;;
71814;SDS011;59659;41.520;23.794;2023-03-26T07:33:09;2.20;;;1.20;;
71814;SDS011;59659;41.520;23.794;2023-03-26T07:35:36;1.37;;;1.03;;
71814;SDS011;59659;41.520;23.794;2023-03-26T07:36:56;2.33;;;1.53;;
71814;SDS011;59659;41.520;23.794;2023-03-26T07:39:58;1.10;;;0.97;;